Time;durP1;ratioP1;P1;durP2;ratioP2;P2;SDS_P1;SDS_P2;PMS_P1;PMS_P2;Temp;Humidity;BMP_temperature;BMP_pressure;BME280_temperature;BME280_humidity;BME280_pressure;Samples;Min_cycle;Max_cycle;Signal;HPM_P1;HPM_P2
2021/10/08 00:01:27;;;;;;;47.23;29.07;;;;;;;7.15;80.38;103088.33;1773084;80;21925;-86
2021/10/08 00:04:00;;;;;;;44.65;29.40;;;;;;;7.11;80.47;103093.73;1772330;80;21477;-86
2021/10/08 00:06:27;;;;;;;48.92;30.70;;;;;;;7.12;80.61;103094.27;1773035;80;21055;-86
2021/10/08 00:08:54;;;;;;;40.10;27.52;;;;;;;7.13;80.49;103095.16;1746698;79;21139;-85
2021/10/08 00:11:21;;;;;;;43.08;27.80;;;;;;;7.06;80.28;103088.56;1746811;80;21070;-86
2021/10/08 00:13:50;;;;;;;47.90;28.95;;;;;;;7.01;80.20;103093.84;1772640;80;21086;-86
2021/10/08 00:16:19;;;;;;;41.15;27.58;;;;;;;6.98;80.29;103094.89;1772935;80;21035;-85
2021/10/08 00:18:46;;;;;;;45.90;30.05;;;;;;;6.95;80.28;103095.98;1773162;80;21110;-85
2021/10/08 00:21:13;;;;;;;48.52;30.20;;;;;;;6.91;80.36;103098.77;1773001;80;21074;-85
2021/10/08 00:23:40;;;;;;;40.43;27.55;;;;;;;6.88;80.41;103096.30;1773006;80;21659;-85
2021/10/08 00:26:07;;;;;;;39.42;28.02;;;;;;;6.84;80.43;103098.17;1773249;80;21697;-85
2021/10/08 00:28:33;;;;;;;39.40;26.68;;;;;;;6.79;80.33;103096.11;1772848;80;21513;-85
2021/10/08 00:31:04;;;;;;;40.30;28.00;;;;;;;6.77;80.54;103099.38;1772989;80;21050;-86
2021/10/08 00:33:30;;;;;;;39.42;28.30;;;;;;;6.76;80.63;103096.27;1772745;80;21027;-86
2021/10/08 00:35:57;;;;;;;39.85;28.15;;;;;;;6.75;80.56;103099.66;1772986;80;21047;-86
2021/10/08 00:38:26;;;;;;;42.40;27.62;;;;;;;6.71;80.46;103097.61;1772321;80;21098;-85
2021/10/08 00:40:55;;;;;;;45.50;27.55;;;;;;;6.70;80.54;103097.08;1772874;80;21970;-84
2021/10/08 00:43:22;;;;;;;43.63;28.23;;;;;;;6.68;80.55;103103.52;1773053;80;21114;-85
2021/10/08 00:45:52;;;;;;;42.83;28.15;;;;;;;6.66;80.66;103101.55;1773056;80;21137;-86
2021/10/08 00:48:19;;;;;;;43.92;27.15;;;;;;;6.64;80.78;103108.37;1773232;80;21557;-86
2021/10/08 00:50:49;;;;;;;40.28;26.45;;;;;;;6.61;80.81;103107.75;1773273;80;21693;-86
2021/10/08 00:53:17;;;;;;;41.58;27.40;;;;;;;6.61;80.89;103107.75;1773180;80;21039;-84
2021/10/08 00:55:49;;;;;;;45.83;27.15;;;;;;;6.61;80.92;103104.73;1773075;80;21070;-84
2021/10/08 00:58:20;;;;;;;45.38;27.05;;;;;;;6.61;80.92;103107.34;1747663;80;21544;-84
2021/10/08 01:00:49;;;;;;;39.18;26.33;;;;;;;6.61;80.91;103102.11;1773099;80;21070;-85
2021/10/08 01:03:18;;;;;;;35.88;26.93;;;;;;;6.60;80.90;103101.98;1773160;80;21766;-86
2021/10/08 01:05:46;;;;;;;38.00;25.02;;;;;;;6.57;80.79;103097.44;1772639;80;20983;-86
2021/10/08 01:08:14;;;;;;;37.05;25.85;;;;;;;6.52;80.77;103101.38;1773061;80;21043;-85
2021/10/08 01:10:42;;;;;;;41.20;26.55;;;;;;;6.53;80.91;103105.84;1783566;79;21027;-85
2021/10/08 01:13:10;;;;;;;40.65;25.68;;;;;;;6.52;80.77;103108.33;1787712;80;21109;-84
2021/10/08 01:15:37;;;;;;;40.88;26.48;;;;;;;6.48;80.72;103108.48;1787460;80;21833;-85
2021/10/08 01:18:04;;;;;;;37.23;25.45;;;;;;;6.43;80.65;103108.09;1787441;80;21034;-85
2021/10/08 01:20:31;;;;;;;35.83;25.05;;;;;;;6.40;80.72;103111.80;1787752;80;21552;-85
2021/10/08 01:22:58;;;;;;;36.65;25.05;;;;;;;6.40;80.79;103110.86;1787897;80;21081;-85
2021/10/08 01:25:28;;;;;;;45.67;25.72;;;;;;;6.36;80.73;103108.42;1756188;80;21054;-85
2021/10/08 01:27:55;;;;;;;44.13;26.90;;;;;;;6.30;80.65;103103.98;1787635;80;21826;-85
2021/10/08 01:30:22;;;;;;;36.98;24.65;;;;;;;6.27;80.68;103112.92;1787704;80;21313;-85
2021/10/08 01:32:49;;;;;;;38.53;24.90;;;;;;;6.25;80.72;103117.48;1787894;80;21061;-85
2021/10/08 01:35:16;;;;;;;34.88;24.98;;;;;;;6.23;80.72;103109.52;1787785;80;21098;-86
2021/10/08 01:37:43;;;;;;;35.73;24.43;;;;;;;6.22;80.77;103100.76;1787912;80;21038;-85
2021/10/08 01:40:14;;;;;;;37.58;25.35;;;;;;;6.18;80.64;103104.33;1787893;80;22408;-85
2021/10/08 01:42:45;;;;;;;43.30;25.40;;;;;;;6.18;80.67;103110.86;1787632;80;21098;-85
2021/10/08 01:45:11;;;;;;;34.92;22.62;;;;;;;6.13;80.67;103111.78;1787097;80;21089;-83
2021/10/08 01:47:38;;;;;;;41.28;23.10;;;;;;;6.13;80.85;103113.49;1787499;80;21062;-83
2021/10/08 01:50:06;;;;;;;41.48;23.22;;;;;;;6.11;80.83;103115.08;1787636;80;21141;-84
2021/10/08 01:52:40;;;;;;;32.70;21.77;;;;;;;6.09;80.83;103106.20;1787569;80;21833;-85
2021/10/08 01:55:07;;;;;;;35.25;24.20;;;;;;;6.11;80.87;103107.23;1786515;80;21062;-85
2021/10/08 01:57:34;;;;;;;37.23;24.90;;;;;;;6.11;80.82;103108.54;1787728;80;21492;-84
2021/10/08 02:00:05;;;;;;;38.13;25.10;;;;;;;6.06;80.66;103110.76;1756142;80;21062;-84
2021/10/08 02:02:32;;;;;;;35.65;24.70;;;;;;;6.06;80.77;103114.69;1787808;80;21543;-85
2021/10/08 02:05:01;;;;;;;29.23;22.27;;;;;;;6.06;80.80;103109.45;1787762;80;21760;-86
2021/10/08 02:07:32;;;;;;;35.15;23.92;;;;;;;6.03;80.58;103109.23;1787196;80;21066;-86
2021/10/08 02:09:59;;;;;;;33.88;22.85;;;;;;;5.97;80.54;103105.72;1787557;80;21030;-86
2021/10/08 02:12:26;;;;;;;33.98;24.27;;;;;;;5.95;80.62;103107.63;1787527;80;21579;-85
2021/10/08 02:14:53;;;;;;;34.95;22.35;;;;;;;5.94;80.82;103109.34;1788017;80;21015;-87
2021/10/08 02:17:22;;;;;;;35.85;23.38;;;;;;;5.96;80.92;103113.44;1787838;80;21758;-86
2021/10/08 02:19:48;;;;;;;35.23;23.83;;;;;;;5.95;80.81;103106.33;1788000;80;22141;-86
2021/10/08 02:22:15;;;;;;;38.23;23.30;;;;;;;5.93;80.82;103106.23;1787921;80;21038;-86
2021/10/08 02:24:42;;;;;;;33.88;23.52;;;;;;;5.89;80.71;103113.67;1788031;80;21320;-86
2021/10/08 02:27:09;;;;;;;34.43;22.15;;;;;;;5.85;80.75;103116.43;1787894;80;21042;-86
2021/10/08 02:29:36;;;;;;;38.80;22.82;;;;;;;5.83;80.73;103123.23;1787782;80;21840;-86
2021/10/08 02:32:03;;;;;;;32.05;21.25;;;;;;;5.83;80.83;103123.23;1787909;80;21063;-85
2021/10/08 02:34:36;;;;;;;32.20;22.13;;;;;;;5.81;80.83;103129.64;1787964;80;21635;-85
2021/10/08 02:37:03;;;;;;;36.10;23.12;;;;;;;5.83;80.92;103129.36;1787855;80;21077;-85
2021/10/08 02:39:32;;;;;;;38.10;22.48;;;;;;;5.84;80.97;103127.29;1755813;80;21521;-84
2021/10/08 02:42:01;;;;;;;34.13;22.55;;;;;;;5.87;80.99;103123.09;1788049;80;21745;-84
2021/10/08 02:44:28;;;;;;;31.33;20.77;;;;;;;5.85;80.90;103132.11;1787725;80;21042;-83
2021/10/08 02:46:55;;;;;;;31.60;22.15;;;;;;;5.84;80.92;103129.00;1787778;80;21027;-85
2021/10/08 02:49:24;;;;;;;32.08;21.42;;;;;;;5.81;80.89;103131.34;1787902;80;21058;-85
2021/10/08 02:51:54;;;;;;;39.88;22.35;;;;;;;5.81;80.96;103136.58;1788206;80;21726;-85
2021/10/08 02:54:21;;;;;;;37.40;22.02;;;;;;;5.80;80.96;103137.34;1788044;80;21888;-85
2021/10/08 02:56:50;;;;;;;35.08;23.42;;;;;;;5.77;80.95;103144.55;1787886;80;21090;-86
2021/10/08 02:59:18;;;;;;;36.10;22.10;;;;;;;5.77;81.02;103146.27;1756287;80;21117;-85
2021/10/08 03:01:45;;;;;;;32.15;22.07;;;;;;;5.79;81.16;103147.30;1787830;80;21635;-85
2021/10/08 03:04:15;;;;;;;37.28;22.15;;;;;;;5.80;81.09;103155.27;1787808;80;21569;-85
2021/10/08 03:06:47;;;;;;;36.03;22.50;;;;;;;5.77;80.94;103160.23;1787772;80;22560;-86
2021/10/08 03:09:14;;;;;;;37.42;24.37;;;;;;;5.76;81.00;103153.56;1787673;80;21019;-85
2021/10/08 03:11:41;;;;;;;32.90;21.77;;;;;;;5.77;81.02;103152.80;1787428;79;21039;-85
2021/10/08 03:14:08;;;;;;;36.17;22.48;;;;;;;5.74;80.92;103152.53;1787451;80;21054;-84
2021/10/08 03:16:37;;;;;;;35.28;22.32;;;;;;;5.71;80.93;103153.20;1786892;80;21576;-84
2021/10/08 03:19:04;;;;;;;35.85;21.62;;;;;;;5.67;80.86;103153.73;1787919;80;21833;-84
2021/10/08 03:21:33;;;;;;;33.60;21.48;;;;;;;5.65;80.93;103157.52;1756146;80;21019;-84
2021/10/08 03:24:00;;;;;;;31.87;22.27;;;;;;;5.63;80.92;103164.31;1787849;80;21065;-84
2021/10/08 03:26:27;;;;;;;29.30;20.35;;;;;;;5.60;80.90;103164.45;1757026;80;21082;-85
2021/10/08 03:28:55;;;;;;;29.63;21.05;;;;;;;5.58;80.94;103160.40;1787850;80;20971;-84
2021/10/08 03:31:24;;;;;;;34.08;21.35;;;;;;;5.55;80.94;103164.05;1756119;80;21062;-84
2021/10/08 03:33:51;;;;;;;31.57;19.95;;;;;;;5.55;80.99;103165.75;1787671;80;21121;-84
2021/10/08 03:39:06;;;;;;;31.42;20.08;;;;;;;5.50;80.95;103164.44;1787973;80;21019;-86
2021/10/08 03:41:34;;;;;;;28.55;20.10;;;;;;;5.48;80.96;103166.02;1788085;80;21034;-87
2021/10/08 03:44:03;;;;;;;29.27;20.12;;;;;;;5.48;81.03;103164.71;1787284;80;21050;-85
2021/10/08 03:46:42;;;;;;;33.33;21.25;;;;;;;5.48;81.02;103164.71;1756390;80;21085;-85
2021/10/08 03:51:45;;;;;;;33.08;20.48;;;;;;;5.42;80.98;103171.63;1756989;80;21282;-86
2021/10/08 03:54:17;;;;;;;32.63;20.00;;;;;;;5.39;81.01;103171.40;1787842;80;21094;-86
2021/10/08 03:56:46;;;;;;;31.35;20.72;;;;;;;5.37;80.95;103174.27;1787730;80;21920;-86
2021/10/08 03:59:21;;;;;;;30.52;20.62;;;;;;;5.34;80.95;103181.44;1786816;80;21257;-86
2021/10/08 04:01:46;;;;;;;30.45;20.08;;;;;;;5.31;80.93;103180.26;1787139;80;21667;-85
2021/10/08 04:04:13;;;;;;;33.23;20.75;;;;;;;5.26;80.90;103178.17;1787770;80;21117;-86
2021/10/08 04:06:40;;;;;;;29.10;20.02;;;;;;;5.24;80.90;103178.84;1787706;80;21078;-87
2021/10/08 04:09:08;;;;;;;35.23;21.23;;;;;;;5.21;80.97;103181.17;1787687;80;21687;-86
2021/10/08 04:11:35;;;;;;;26.48;18.62;;;;;;;5.19;80.98;103182.34;1787184;80;21007;-86
2021/10/08 04:14:03;;;;;;;32.00;20.30;;;;;;;5.19;81.03;103185.36;1787608;80;21615;-85
2021/10/08 04:16:30;;;;;;;37.25;21.70;;;;;;;5.17;80.85;103193.45;1787432;80;21155;-85
2021/10/08 04:18:57;;;;;;;28.47;19.92;;;;;;;5.11;80.77;103195.14;1787731;80;21054;-85
2021/10/08 04:21:27;;;;;;;33.98;19.95;;;;;;;5.09;80.92;103195.77;1787667;80;21753;-84
2021/10/08 04:23:52;;;;;;;27.87;19.05;;;;;;;5.06;80.94;103197.73;1787140;80;21081;-85
2021/10/08 04:26:19;;;;;;;27.25;18.35;;;;;;;5.02;80.91;103199.16;1787493;80;21093;-85
2021/10/08 04:28:46;;;;;;;28.45;18.10;;;;;;;5.01;80.99;103202.57;1787389;80;21584;-84
2021/10/08 04:31:22;;;;;;;25.85;17.75;;;;;;;5.00;80.97;103205.05;1787918;80;21086;-84
2021/10/08 04:33:52;;;;;;;22.87;18.05;;;;;;;4.98;80.99;103214.44;1787475;80;21815;-85
2021/10/08 04:36:24;;;;;;;28.45;18.55;;;;;;;4.98;80.92;103214.44;1787406;80;21272;-85
2021/10/08 04:38:52;;;;;;;23.90;17.90;;;;;;;4.95;80.96;103220.28;1787288;80;21133;-84
2021/10/08 04:41:18;;;;;;;28.98;18.95;;;;;;;4.94;81.00;103218.47;1787278;80;21583;-80
2021/10/08 04:43:45;;;;;;;31.12;19.32;;;;;;;4.94;81.02;103214.95;1787198;80;21105;-80
2021/10/08 04:46:15;;;;;;;29.32;18.07;;;;;;;4.93;80.94;103223.55;1787263;80;21742;-80
2021/10/08 04:48:41;;;;;;;29.80;18.90;;;;;;;4.91;80.96;103232.95;1786256;80;21062;-80
2021/10/08 04:51:08;;;;;;;27.98;18.10;;;;;;;4.89;81.01;103231.91;1787094;80;21101;-80
2021/10/08 04:53:38;;;;;;;27.93;19.10;;;;;;;4.90;80.99;103238.93;1786897;80;21629;-80
2021/10/08 04:56:04;;;;;;;31.75;17.95;;;;;;;4.89;81.04;103235.81;1786826;80;21148;-80
2021/10/08 04:58:31;;;;;;;27.85;19.35;;;;;;;4.90;81.05;103236.32;1787085;80;21811;-80
2021/10/08 05:00:58;;;;;;;32.60;18.52;;;;;;;4.92;81.07;103243.53;1786878;80;21133;-80
2021/10/08 05:03:25;;;;;;;27.07;18.20;;;;;;;4.92;81.05;103242.59;1787943;80;21046;-90
2021/10/08 05:05:52;;;;;;;28.50;17.32;;;;;;;4.93;81.00;103247.05;1787513;80;21101;-81
2021/10/08 05:08:20;;;;;;;28.10;18.52;;;;;;;4.90;80.90;103249.01;1787385;80;21057;-83
2021/10/08 05:10:47;;;;;;;32.42;18.05;;;;;;;4.92;81.00;103247.81;1787036;80;21748;-82
2021/10/08 05:13:14;;;;;;;33.45;18.77;;;;;;;4.95;81.01;103243.77;1756554;80;21070;-82
2021/10/08 05:15:41;;;;;;;25.68;17.77;;;;;;;4.97;80.91;103247.83;1787221;80;21078;-83
2021/10/08 05:18:08;;;;;;;28.40;18.17;;;;;;;4.99;80.85;103255.04;1787131;80;21018;-82
2021/10/08 05:20:35;;;;;;;30.88;19.15;;;;;;;5.03;80.84;103264.96;1787150;80;21062;-83
2021/10/08 05:23:04;;;;;;;30.55;19.23;;;;;;;5.09;80.80;103272.42;1787161;80;21780;-82
2021/10/08 05:25:31;;;;;;;31.40;18.60;;;;;;;5.10;80.83;103266.39;1787025;80;21090;-82
2021/10/08 05:27:58;;;;;;;30.80;19.20;;;;;;;5.19;81.00;103276.73;1787270;80;21101;-82
2021/10/08 05:30:25;;;;;;;31.27;18.42;;;;;;;5.24;80.88;103275.05;1786984;80;21106;-82
2021/10/08 05:32:52;;;;;;;29.27;19.00;;;;;;;5.29;80.83;103275.84;1786918;80;21061;-82
2021/10/08 05:35:19;;;;;;;29.35;18.50;;;;;;;5.36;80.84;103282.12;1787079;80;21824;-82
2021/10/08 05:37:46;;;;;;;26.65;19.05;;;;;;;5.44;80.95;103283.69;1787245;80;21097;-82
2021/10/08 05:40:13;;;;;;;29.10;19.95;;;;;;;5.53;80.84;103288.81;1787205;80;21089;-82
2021/10/08 05:42:40;;;;;;;33.38;20.70;;;;;;;5.59;80.81;103292.88;1787169;80;21105;-82
2021/10/08 05:45:07;;;;;;;33.25;21.15;;;;;;;5.67;80.77;103295.20;1787243;80;21053;-82
2021/10/08 05:47:34;;;;;;;29.48;19.57;;;;;;;5.74;80.82;103299.78;1787192;80;21828;-83
2021/10/08 05:50:01;;;;;;;32.28;19.60;;;;;;;5.83;80.83;103297.05;1787151;80;21638;-82
2021/10/08 05:52:31;;;;;;;27.45;19.52;;;;;;;5.88;80.61;103295.75;1787249;80;21086;-82
2021/10/08 05:54:57;;;;;;;31.90;20.60;;;;;;;5.95;80.64;103302.39;1787234;80;20999;-82
2021/10/08 05:57:25;;;;;;;28.35;19.73;;;;;;;6.02;80.65;103308.34;1787442;80;21018;-83
2021/10/08 05:59:51;;;;;;;35.95;21.42;;;;;;;6.09;80.68;103303.61;1787453;80;21802;-82
2021/10/08 06:02:18;;;;;;;32.70;19.87;;;;;;;6.20;80.77;103310.66;1787372;80;21568;-82
2021/10/08 06:04:45;;;;;;;41.08;20.77;;;;;;;6.31;80.69;103315.48;1787534;80;21153;-83
2021/10/08 06:07:12;;;;;;;34.73;19.60;;;;;;;6.36;80.50;103319.02;1787402;80;21018;-82
2021/10/08 06:09:45;;;;;;;29.32;19.50;;;;;;;6.40;80.44;103317.16;1786542;80;21102;-82
2021/10/08 06:12:09;;;;;;;38.50;21.82;;;;;;;6.51;80.59;103319.74;1776063;80;22602;-82
2021/10/08 06:14:36;;;;;;;37.65;21.85;;;;;;;6.56;80.31;103318.42;1772571;80;21058;-82
2021/10/08 06:17:03;;;;;;;44.33;23.45;;;;;;;6.59;80.19;103316.98;1772725;80;21071;-82
2021/10/08 06:19:30;;;;;;;41.65;22.05;;;;;;;6.62;80.14;103315.00;1772408;80;21011;-81
2021/10/08 06:21:57;;;;;;;43.83;21.35;;;;;;;6.67;80.04;103315.39;1772710;80;21032;-82
2021/10/08 06:24:25;;;;;;;34.38;19.37;;;;;;;6.70;80.07;103317.87;1772772;80;21742;-82
2021/10/08 06:26:52;;;;;;;31.10;18.37;;;;;;;6.77;80.05;103315.34;1772626;80;21074;-82
2021/10/08 06:29:19;;;;;;;34.65;18.85;;;;;;;6.83;79.93;103318.45;1772673;80;21576;-82
2021/10/08 06:31:46;;;;;;;35.17;18.60;;;;;;;6.86;79.80;103320.42;1772534;80;21130;-82
2021/10/08 06:34:13;;;;;;;37.33;19.15;;;;;;;6.87;79.81;103324.48;1772662;80;21497;-82
2021/10/08 06:36:40;;;;;;;34.15;18.35;;;;;;;6.89;79.64;103331.13;1772492;80;21734;-82
2021/10/08 06:39:06;;;;;;;31.77;18.62;;;;;;;6.91;79.65;103330.89;1772798;80;21117;-82
2021/10/08 06:41:37;;;;;;;30.43;18.27;;;;;;;6.94;79.65;103329.80;1772349;80;21568;-82
2021/10/08 06:44:02;;;;;;;46.02;20.23;;;;;;;6.99;79.63;103331.09;1772199;80;21070;-82
2021/10/08 06:46:29;;;;;;;36.35;21.17;;;;;;;7.04;79.59;103332.40;1772547;80;21028;-83
2021/10/08 06:48:56;;;;;;;41.48;21.80;;;;;;;7.10;79.65;103338.12;1772471;80;21744;-82
2021/10/08 06:51:23;;;;;;;37.40;21.10;;;;;;;7.13;79.52;103339.69;1772475;80;21098;-82
2021/10/08 06:53:50;;;;;;;42.65;20.80;;;;;;;7.13;79.42;103337.07;1772690;80;21012;-82
2021/10/08 06:56:16;;;;;;;39.58;22.05;;;;;;;7.16;79.40;103340.32;1772424;80;21121;-82
2021/10/08 06:58:43;;;;;;;39.80;23.38;;;;;;;7.15;79.33;103344.66;1772523;80;21090;-82
2021/10/08 07:01:10;;;;;;;32.83;21.65;;;;;;;7.19;79.42;103344.51;1772501;80;22659;-82
2021/10/08 07:03:37;;;;;;;33.80;22.93;;;;;;;7.23;79.38;103345.67;1772345;80;21062;-82
2021/10/08 07:06:05;;;;;;;39.48;22.17;;;;;;;7.27;79.24;103350.36;1770841;80;21528;-82
2021/10/08 07:08:32;;;;;;;38.70;21.42;;;;;;;7.31;79.12;103353.73;1772586;80;21591;-82
2021/10/08 07:10:59;;;;;;;36.48;19.55;;;;;;;7.35;79.18;103355.39;1772177;79;20996;-82
2021/10/08 07:13:27;;;;;;;38.28;19.45;;;;;;;7.39;78.96;103354.88;1771821;80;21822;-82
2021/10/08 07:15:54;;;;;;;33.13;17.90;;;;;;;7.43;78.83;103356.41;1772465;80;21086;-82
2021/10/08 07:18:24;;;;;;;27.37;16.02;;;;;;;7.47;78.81;103354.17;1772151;80;21146;-83
2021/10/08 07:20:49;;;;;;;37.80;17.42;;;;;;;7.52;78.67;103361.98;1746436;80;21192;-82
2021/10/08 07:23:16;;;;;;;34.13;17.55;;;;;;;7.55;78.58;103366.16;1772214;80;21090;-82
2021/10/08 07:25:43;;;;;;;35.05;17.60;;;;;;;7.59;78.48;103368.64;1772139;80;21750;-82
2021/10/08 07:28:10;;;;;;;34.20;17.52;;;;;;;7.61;78.24;103364.83;1771970;80;21031;-83
2021/10/08 07:30:36;;;;;;;31.82;17.75;;;;;;;7.61;78.31;103373.60;1771999;80;21087;-82
2021/10/08 07:33:03;;;;;;;40.17;19.50;;;;;;;7.63;78.33;103372.02;1772063;80;21087;-82
2021/10/08 07:35:30;;;;;;;34.45;18.30;;;;;;;7.70;78.31;103375.64;1772041;80;21868;-82
2021/10/08 07:37:57;;;;;;;37.35;17.85;;;;;;;7.74;78.35;103372.87;1772203;80;21735;-82
2021/10/08 07:40:24;;;;;;;32.78;17.40;;;;;;;7.84;78.38;103376.71;1772358;80;21019;-82
2021/10/08 07:42:50;;;;;;;38.05;17.12;;;;;;;7.88;78.21;103375.25;1772240;80;21047;-82
2021/10/08 07:45:18;;;;;;;33.28;17.55;;;;;;;7.93;78.03;103374.81;1772188;80;21077;-82
2021/10/08 07:47:44;;;;;;;29.98;17.48;;;;;;;8.01;77.97;103376.71;1772360;80;21110;-82
2021/10/08 07:50:11;;;;;;;40.17;17.27;;;;;;;8.08;77.75;103380.73;1772377;80;21746;-82
2021/10/08 07:52:38;;;;;;;34.43;18.00;;;;;;;8.12;77.54;103373.62;1772587;80;21133;-82
2021/10/08 07:55:07;;;;;;;35.23;17.85;;;;;;;8.17;77.60;103371.86;1772547;80;21062;-82
2021/10/08 07:57:35;;;;;;;37.33;18.10;;;;;;;8.21;77.53;103376.95;1746748;80;21063;-82
2021/10/08 08:00:01;;;;;;;30.48;16.62;;;;;;;8.28;77.61;103375.31;1772406;80;21079;-82
2021/10/08 08:02:31;;;;;;;38.13;17.60;;;;;;;8.33;77.55;103381.84;1772388;80;21730;-83
2021/10/08 08:04:58;;;;;;;35.10;16.52;;;;;;;8.43;77.63;103381.23;1772154;80;21486;-83
2021/10/08 08:07:25;;;;;;;31.30;17.02;;;;;;;8.52;77.53;103384.55;1771927;80;21066;-83
2021/10/08 08:09:52;;;;;;;27.58;17.27;;;;;;;8.61;77.39;103383.94;1771527;80;21593;-83
2021/10/08 08:12:19;;;;;;;35.78;17.05;;;;;;;8.69;77.39;103381.89;1771729;79;21078;-82
2021/10/08 08:14:46;;;;;;;30.80;16.95;;;;;;;8.75;77.31;103384.59;1772141;80;22555;-83
2021/10/08 08:17:13;;;;;;;32.23;17.40;;;;;;;8.82;77.18;103386.34;1772114;80;21066;-82
2021/10/08 08:19:42;;;;;;;34.03;16.50;;;;;;;8.86;77.03;103382.77;1772157;80;21550;-82
2021/10/08 08:22:09;;;;;;;35.10;15.28;;;;;;;8.93;76.96;103384.12;1772547;80;21070;-83
2021/10/08 08:24:36;;;;;;;36.60;16.75;;;;;;;9.00;76.88;103381.14;1772208;80;21126;-83
2021/10/08 08:27:03;;;;;;;28.67;15.78;;;;;;;9.07;76.65;103387.78;1772246;80;21747;-83
2021/10/08 08:29:30;;;;;;;34.25;16.37;;;;;;;9.12;76.56;103384.69;1772321;80;21090;-83
2021/10/08 08:31:57;;;;;;;33.25;15.65;;;;;;;9.17;76.44;103379.75;1772322;80;21035;-83
2021/10/08 08:34:25;;;;;;;28.98;15.70;;;;;;;9.22;76.33;103380.11;1772474;80;21039;-83
2021/10/08 08:36:52;;;;;;;26.00;15.83;;;;;;;9.28;76.18;103376.19;1772484;80;21115;-82
2021/10/08 08:39:20;;;;;;;28.40;15.65;;;;;;;9.33;76.10;103380.48;1772680;80;21850;-83
2021/10/08 08:41:48;;;;;;;27.17;16.57;;;;;;;9.39;75.95;103386.17;1772363;80;21138;-83
2021/10/08 08:44:15;;;;;;;33.78;17.12;;;;;;;9.45;75.75;103384.39;1772461;80;21058;-83
2021/10/08 08:46:44;;;;;;;28.70;16.97;;;;;;;9.47;75.63;103382.78;1772266;80;21074;-82
2021/10/08 08:49:11;;;;;;;25.92;16.35;;;;;;;9.50;75.62;103377.34;1772343;80;21059;-83
2021/10/08 08:51:38;;;;;;;28.73;15.18;;;;;;;9.57;75.52;103381.72;1772333;80;21738;-83
2021/10/08 08:54:08;;;;;;;25.27;14.55;;;;;;;9.58;75.41;103367.37;1772304;80;21078;-83
2021/10/08 08:56:35;;;;;;;23.10;14.55;;;;;;;9.73;75.16;103378.97;1772246;80;21146;-83
2021/10/08 08:59:09;;;;;;;24.00;14.50;;;;;;;9.82;74.83;103373.45;1772507;80;21066;-83
2021/10/08 09:01:38;;;;;;;29.98;15.43;;;;;;;9.89;74.81;103378.72;1772724;80;21062;-82
2021/10/08 09:04:07;;;;;;;29.00;14.83;;;;;;;10.00;74.62;103383.01;1768568;80;22627;-82
2021/10/08 09:06:37;;;;;;;27.58;13.78;;;;;;;10.08;74.36;103382.25;1772301;80;21615;-82
2021/10/08 09:09:21;;;;;;;23.52;13.83;;;;;;;10.13;73.94;103380.83;1772670;80;21118;-82
2021/10/08 09:11:49;;;;;;;21.75;12.98;;;;;;;10.17;73.41;103379.33;1772444;79;21165;-83
2021/10/08 09:14:19;;;;;;;21.37;13.40;;;;;;;10.19;73.38;103379.96;1772135;80;21114;-82
2021/10/08 09:17:11;;;;;;;25.05;13.62;;;;;;;10.25;73.20;103377.73;1772387;80;21775;-82
2021/10/08 09:20:07;;;;;;;24.52;13.70;;;;;;;10.31;73.13;103386.08;1772235;80;21106;-83
2021/10/08 09:22:51;;;;;;;27.52;13.65;;;;;;;10.38;73.04;103382.54;1772420;80;21575;-83
2021/10/08 09:25:33;;;;;;;25.70;14.10;;;;;;;10.42;72.70;103384.19;1772402;80;21091;-83
2021/10/08 09:28:03;;;;;;;31.90;15.40;;;;;;;10.46;72.70;103382.67;1772507;80;21016;-82
2021/10/08 09:30:42;;;;;;;26.12;14.58;;;;;;;10.48;72.62;103381.05;1772406;80;21755;-83
2021/10/08 09:33:13;;;;;;;26.30;14.35;;;;;;;10.48;72.49;103384.59;1772559;80;21047;-83
2021/10/08 09:35:44;;;;;;;25.37;13.68;;;;;;;10.52;72.61;103380.86;1771474;80;21122;-83
2021/10/08 09:38:13;;;;;;;27.13;12.10;;;;;;;10.57;72.56;103384.73;1772475;80;21094;-82
2021/10/08 09:40:52;;;;;;;27.20;12.82;;;;;;;10.62;72.28;103385.92;1772321;80;21117;-83
2021/10/08 09:43:28;;;;;;;24.40;11.83;;;;;;;10.64;72.15;103382.60;1771870;80;21811;-82
2021/10/08 09:46:05;;;;;;;23.42;12.63;;;;;;;10.68;71.76;103377.14;1772148;80;21130;-82
2021/10/08 09:48:43;;;;;;;23.95;11.93;;;;;;;10.72;71.52;103377.84;1772061;80;21600;-83
2021/10/08 09:51:16;;;;;;;25.30;12.53;;;;;;;10.77;71.51;103380.77;1772460;80;21500;-82
2021/10/08 09:56:41;;;;;;;19.27;11.65;;;;;;;10.85;71.19;103381.79;1640718;86;21843;-82
2021/10/08 09:59:11;;;;;;;19.98;10.55;;;;;;;10.93;70.72;103374.80;1640558;86;21195;-82
2021/10/08 10:01:40;;;;;;;20.10;11.43;;;;;;;11.01;70.43;103373.16;1618206;87;21149;-82
2021/10/08 10:04:12;;;;;;;20.90;11.03;;;;;;;11.08;70.41;103378.02;1640616;86;21721;-82
2021/10/08 10:06:40;;;;;;;23.98;11.25;;;;;;;11.16;70.12;103373.66;1639648;87;21128;-82
2021/10/08 10:09:08;;;;;;;22.90;10.80;;;;;;;11.19;69.90;103373.86;1640805;86;21839;-82
2021/10/08 10:11:35;;;;;;;23.40;11.43;;;;;;;11.23;69.81;103372.83;1640458;87;21145;-82
2021/10/08 10:14:02;;;;;;;20.15;10.75;;;;;;;11.28;69.51;103370.09;1640739;86;21603;-82
2021/10/08 10:16:33;;;;;;;19.32;11.85;;;;;;;11.31;69.20;103368.45;1640459;87;21190;-82
2021/10/08 10:19:01;;;;;;;20.52;9.98;;;;;;;11.32;68.91;103373.84;1640872;86;21176;-82
2021/10/08 10:21:31;;;;;;;19.62;10.45;;;;;;;11.35;68.77;103371.38;1661873;85;22411;-82
2021/10/08 10:24:01;;;;;;;20.30;9.85;;;;;;;11.39;68.48;103369.46;1671291;85;21056;-82
2021/10/08 10:26:30;;;;;;;19.07;10.35;;;;;;;11.42;68.54;103370.95;1671366;84;21120;-82
2021/10/08 10:28:59;;;;;;;16.37;10.15;;;;;;;11.50;68.68;103370.12;1671470;85;21107;-82
2021/10/08 10:31:26;;;;;;;18.57;10.82;;;;;;;11.59;68.74;103373.75;1671599;84;21122;-82
2021/10/08 10:34:00;;;;;;;19.98;10.40;;;;;;;11.66;68.65;103374.65;1671589;84;21761;-82
2021/10/08 10:36:29;;;;;;;21.05;11.12;;;;;;;11.72;68.56;103372.80;1671599;85;21119;-82
2021/10/08 10:39:19;;;;;;;20.52;11.15;;;;;;;11.75;68.49;103372.97;1671571;84;21115;-82
2021/10/08 10:41:51;;;;;;;22.52;10.63;;;;;;;11.79;68.51;103375.91;1671575;84;21103;-83
2021/10/08 10:44:30;;;;;;;31.07;12.65;;;;;;;11.83;68.42;103371.32;1664836;84;21138;-82
2021/10/08 10:47:33;;;;;;;19.27;11.00;;;;;;;11.87;68.30;103377.28;1671340;84;22403;-81
2021/10/08 10:50:18;;;;;;;22.27;11.12;;;;;;;11.89;68.11;103368.56;1671053;84;21201;-82
2021/10/08 10:52:51;;;;;;;20.60;11.08;;;;;;;11.93;67.97;103374.56;1671137;84;21636;-82
2021/10/08 10:55:18;;;;;;;22.00;9.58;;;;;;;11.96;67.87;103371.70;1681477;84;21539;-82
2021/10/08 10:58:01;;;;;;;20.80;11.40;;;;;;;11.99;67.66;103369.27;1699631;84;21642;-82
2021/10/08 11:00:41;;;;;;;22.48;10.70;;;;;;;12.00;67.56;103364.89;1699841;84;21519;-82
2021/10/08 11:03:31;;;;;;;26.17;10.23;;;;;;;12.05;67.55;103368.31;1699903;84;21058;-82
2021/10/08 11:06:14;;;;;;;20.32;10.55;;;;;;;12.11;67.52;103370.83;1699142;84;21431;-82
2021/10/08 11:09:09;;;;;;;26.05;11.43;;;;;;;12.16;67.39;103363.69;1699930;84;21362;-82
2021/10/08 11:11:38;;;;;;;20.50;11.28;;;;;;;12.22;67.31;103364.05;1699467;84;21559;-82
2021/10/08 11:14:20;;;;;;;22.67;10.75;;;;;;;12.30;66.97;103355.69;1699814;84;21937;-82
2021/10/08 11:16:47;;;;;;;17.32;10.80;;;;;;;12.34;66.78;103353.72;1699745;84;21706;-81
2021/10/08 11:19:39;;;;;;;22.15;11.08;;;;;;;12.36;66.39;103351.66;1699900;84;21038;-82
2021/10/08 11:22:06;;;;;;;18.92;10.93;;;;;;;12.41;66.56;103346.66;1698992;84;21683;-82
2021/10/08 11:24:33;;;;;;;20.52;11.35;;;;;;;12.47;66.19;103348.34;1699876;84;21569;-82
2021/10/08 11:27:01;;;;;;;15.03;9.68;;;;;;;12.50;65.97;103345.89;1699990;84;21711;-82
2021/10/08 11:29:31;;;;;;;19.80;10.35;;;;;;;12.56;65.97;103349.30;1699731;84;21086;-82
2021/10/08 11:32:05;;;;;;;20.57;9.35;;;;;;;12.60;65.71;103344.27;1699905;84;21089;-82
2021/10/08 11:34:36;;;;;;;;;;;;;;;12.64;65.44;103339.66;1702418;84;21049;-82